Forest Falls, CA (92339)

8:57 PM PDT on August 26, 2016 (GMT -0700)
North Bench | | Change Station

Elev 2818 ft 34.07 °N, 117.04 °W | Updated 0 second ago

Clear
Clear
62.6 °F
Feels Like 62.6 °F
N
3.0
Wind Variable Wind from NNW
Gusts 6.0 mph

Today
High -- | Low -- °F
--% Chance of Precip.
Yesterday
High -- | Low -- °F
Precip. -- in
Pressure 29.95 in
Visibility 7.0 miles
Clouds Clear
Dew Point 54 °F
Humidity 73%
Rainfall 0.00 in
Snow Depth Not available.
6:17 AM 7:21 PM
Waning Crescent, 28% visible
METAR KSBD 270346Z 25008KT 07SM SKC 22/13 A2995
Pressure 29.95 in
Visibility 7.0 miles
Clouds Clear
Dew Point 54 °F
Humidity 73%
Rainfall 0.00 in
Snow Depth Not available.
6:17 AM 7:21 PM
Waning Crescent, 28% visible
METAR KSBD 270346Z 25008KT 07SM SKC 22/13 A2995

10-Day Weather Forecast

Almanac

Astronomy

Aug. 26, 2016 Rise Set
Actual Time
Civil Twilight
Nautical Twilight
Astronomical Twilight
Moon
Length of Visible Light
Length of Day
Tomorrow will be .
, % of the Moon is Illuminated

Today's Extremes

State Highs State Lows

Community

WunderPhotos

Upload Photos

1,935,290 photos uploaded!

WunderBlog® & News

Nearby

Air Quality

  Air Quality AQ Index Pollutant
Not available.

Snow Depth

Station Depth Elevation

Earthquake Activity

City Distance Mag. Time & Date
Minimum magnitude displayed is 2.5.

Coastal Water Temperatures

Place Temperature

Stations

Nearby Weather Stations

Station Location Temp. Windchill Dew Point Humidity Wind Precip. Elev Updated Type
                   

Watches & Warnings

There are currently no watches in effect.